sensor_id;sensor_type;location;lat;lon;timestamp;P1;durP1;ratioP1;P2;durP2;ratioP2
5674;SDS011;2860;54.284;10.158;2023-05-17T00:00:51;10.27;;;3.28;;
5674;SDS011;2860;54.284;10.158;2023-05-17T00:03:16;9.23;;;2.80;;
5674;SDS011;2860;54.284;10.158;2023-05-17T00:05:42;16.70;;;3.25;;
5674;SDS011;2860;54.284;10.158;2023-05-17T00:08:07;15.38;;;3.85;;
5674;SDS011;2860;54.284;10.158;2023-05-17T00:10:33;24.65;;;6.32;;
5674;SDS011;2860;54.284;10.158;2023-05-17T00:12:58;29.25;;;3.35;;
5674;SDS011;2860;54.284;10.158;2023-05-17T00:15:24;12.85;;;3.17;;
5674;SDS011;2860;54.284;10.158;2023-05-17T00:17:49;14.43;;;3.88;;
5674;SDS011;2860;54.284;10.158;2023-05-17T00:20:15;16.27;;;3.25;;
5674;SDS011;2860;54.284;10.158;2023-05-17T00:22:41;13.40;;;3.42;;
5674;SDS011;2860;54.284;10.158;2023-05-17T00:25:07;21.60;;;3.85;;
5674;SDS011;2860;54.284;10.158;2023-05-17T00:27:33;21.38;;;4.47;;
5674;SDS011;2860;54.284;10.158;2023-05-17T00:29:58;6.88;;;3.53;;
5674;SDS011;2860;54.284;10.158;2023-05-17T00:32:24;11.30;;;2.60;;
5674;SDS011;2860;54.284;10.158;2023-05-17T00:34:49;10.80;;;2.92;;
5674;SDS011;2860;54.284;10.158;2023-05-17T00:37:15;6.50;;;3.63;;
5674;SDS011;2860;54.284;10.158;2023-05-17T00:39:40;17.40;;;3.47;;
5674;SDS011;2860;54.284;10.158;2023-05-17T00:42:06;18.95;;;3.92;;
5674;SDS011;2860;54.284;10.158;2023-05-17T00:44:31;13.50;;;2.75;;
5674;SDS011;2860;54.284;10.158;2023-05-17T00:46:57;12.27;;;2.72;;
5674;SDS011;2860;54.284;10.158;2023-05-17T00:49:24;11.85;;;3.03;;
5674;SDS011;2860;54.284;10.158;2023-05-17T00:51:53;19.63;;;2.97;;
5674;SDS011;2860;54.284;10.158;2023-05-17T00:54:19;15.20;;;2.97;;
5674;SDS011;2860;54.284;10.158;2023-05-17T00:56:45;13.13;;;2.58;;
5674;SDS011;2860;54.284;10.158;2023-05-17T00:59:11;15.50;;;2.90;;
5674;SDS011;2860;54.284;10.158;2023-05-17T01:01:41;15.35;;;2.80;;
5674;SDS011;2860;54.284;10.158;2023-05-17T01:04:07;15.48;;;4.00;;
5674;SDS011;2860;54.284;10.158;2023-05-17T01:06:34;7.07;;;2.03;;
5674;SDS011;2860;54.284;10.158;2023-05-17T01:09:00;6.50;;;2.40;;
5674;SDS011;2860;54.284;10.158;2023-05-17T01:11:28;16.65;;;3.58;;
5674;SDS011;2860;54.284;10.158;2023-05-17T01:16:44;11.68;;;1.98;;
5674;SDS011;2860;54.284;10.158;2023-05-17T01:22:46;6.85;;;1.88;;
5674;SDS011;2860;54.284;10.158;2023-05-17T01:25:23;5.53;;;2.13;;
5674;SDS011;2860;54.284;10.158;2023-05-17T01:28:09;9.88;;;2.75;;
5674;SDS011;2860;54.284;10.158;2023-05-17T01:30:37;12.18;;;2.53;;
5674;SDS011;2860;54.284;10.158;2023-05-17T01:33:04;12.25;;;2.70;;
5674;SDS011;2860;54.284;10.158;2023-05-17T01:35:31;14.30;;;2.53;;
5674;SDS011;2860;54.284;10.158;2023-05-17T01:37:56;6.20;;;2.53;;
5674;SDS011;2860;54.284;10.158;2023-05-17T01:40:22;10.88;;;2.50;;
5674;SDS011;2860;54.284;10.158;2023-05-17T01:42:49;15.60;;;2.95;;
5674;SDS011;2860;54.284;10.158;2023-05-17T01:45:22;11.95;;;4.88;;
5674;SDS011;2860;54.284;10.158;2023-05-17T01:47:55;12.55;;;2.20;;
5674;SDS011;2860;54.284;10.158;2023-05-17T01:50:34;11.90;;;2.58;;
5674;SDS011;2860;54.284;10.158;2023-05-17T01:53:02;9.82;;;2.53;;
5674;SDS011;2860;54.284;10.158;2023-05-17T01:58:13;9.20;;;2.17;;
5674;SDS011;2860;54.284;10.158;2023-05-17T02:00:40;8.90;;;1.88;;
5674;SDS011;2860;54.284;10.158;2023-05-17T02:03:11;7.03;;;2.03;;
5674;SDS011;2860;54.284;10.158;2023-05-17T02:05:45;18.77;;;2.75;;
5674;SDS011;2860;54.284;10.158;2023-05-17T02:08:11;11.93;;;2.78;;
5674;SDS011;2860;54.284;10.158;2023-05-17T02:10:37;15.18;;;2.15;;
5674;SDS011;2860;54.284;10.158;2023-05-17T02:13:03;7.03;;;3.08;;
5674;SDS011;2860;54.284;10.158;2023-05-17T02:15:29;10.30;;;2.28;;
5674;SDS011;2860;54.284;10.158;2023-05-17T02:17:54;7.78;;;3.08;;
5674;SDS011;2860;54.284;10.158;2023-05-17T02:20:20;9.13;;;2.58;;
5674;SDS011;2860;54.284;10.158;2023-05-17T02:22:46;8.10;;;2.53;;
5674;SDS011;2860;54.284;10.158;2023-05-17T02:25:12;19.40;;;2.80;;
5674;SDS011;2860;54.284;10.158;2023-05-17T02:27:38;13.48;;;3.47;;
5674;SDS011;2860;54.284;10.158;2023-05-17T02:30:03;17.98;;;2.95;;
5674;SDS011;2860;54.284;10.158;2023-05-17T02:32:30;9.70;;;2.78;;
5674;SDS011;2860;54.284;10.158;2023-05-17T02:34:57;13.30;;;2.67;;
5674;SDS011;2860;54.284;10.158;2023-05-17T02:37:23;14.25;;;4.40;;
5674;SDS011;2860;54.284;10.158;2023-05-17T02:39:48;10.82;;;2.45;;
5674;SDS011;2860;54.284;10.158;2023-05-17T02:42:14;9.27;;;1.95;;
5674;SDS011;2860;54.284;10.158;2023-05-17T02:44:40;8.68;;;1.98;;
5674;SDS011;2860;54.284;10.158;2023-05-17T02:47:05;8.93;;;2.15;;
5674;SDS011;2860;54.284;10.158;2023-05-17T02:49:31;27.60;;;2.78;;
5674;SDS011;2860;54.284;10.158;2023-05-17T02:51:56;11.27;;;2.65;;
5674;SDS011;2860;54.284;10.158;2023-05-17T02:54:22;6.97;;;2.55;;
5674;SDS011;2860;54.284;10.158;2023-05-17T02:56:48;10.77;;;3.08;;
5674;SDS011;2860;54.284;10.158;2023-05-17T02:59:13;9.02;;;2.50;;
5674;SDS011;2860;54.284;10.158;2023-05-17T03:01:39;28.48;;;4.68;;
5674;SDS011;2860;54.284;10.158;2023-05-17T03:04:04;17.85;;;3.88;;
5674;SDS011;2860;54.284;10.158;2023-05-17T03:06:30;24.20;;;4.05;;
5674;SDS011;2860;54.284;10.158;2023-05-17T03:08:55;12.27;;;3.10;;
5674;SDS011;2860;54.284;10.158;2023-05-17T03:11:21;13.63;;;3.58;;
5674;SDS011;2860;54.284;10.158;2023-05-17T03:13:47;14.82;;;2.45;;
5674;SDS011;2860;54.284;10.158;2023-05-17T03:16:15;24.83;;;2.95;;
5674;SDS011;2860;54.284;10.158;2023-05-17T03:18:41;17.40;;;3.28;;
5674;SDS011;2860;54.284;10.158;2023-05-17T03:21:07;14.95;;;2.78;;
5674;SDS011;2860;54.284;10.158;2023-05-17T03:23:32;13.07;;;2.83;;
5674;SDS011;2860;54.284;10.158;2023-05-17T03:25:58;13.20;;;2.63;;
5674;SDS011;2860;54.284;10.158;2023-05-17T03:28:23;11.30;;;2.70;;
5674;SDS011;2860;54.284;10.158;2023-05-17T03:30:49;6.38;;;2.92;;
5674;SDS011;2860;54.284;10.158;2023-05-17T03:33:14;14.00;;;2.85;;
5674;SDS011;2860;54.284;10.158;2023-05-17T03:35:40;10.45;;;2.65;;
5674;SDS011;2860;54.284;10.158;2023-05-17T03:38:05;13.10;;;2.97;;
5674;SDS011;2860;54.284;10.158;2023-05-17T03:40:31;12.38;;;2.80;;
5674;SDS011;2860;54.284;10.158;2023-05-17T03:42:56;16.88;;;1.98;;
5674;SDS011;2860;54.284;10.158;2023-05-17T03:45:22;15.50;;;2.83;;
5674;SDS011;2860;54.284;10.158;2023-05-17T03:47:47;16.40;;;2.67;;
5674;SDS011;2860;54.284;10.158;2023-05-17T03:50:13;9.55;;;2.38;;
5674;SDS011;2860;54.284;10.158;2023-05-17T03:52:38;19.25;;;2.28;;
5674;SDS011;2860;54.284;10.158;2023-05-17T03:55:05;15.38;;;2.97;;
5674;SDS011;2860;54.284;10.158;2023-05-17T03:57:31;23.85;;;3.17;;
5674;SDS011;2860;54.284;10.158;2023-05-17T03:59:57;16.85;;;2.60;;
5674;SDS011;2860;54.284;10.158;2023-05-17T04:02:23;11.65;;;3.55;;
5674;SDS011;2860;54.284;10.158;2023-05-17T04:04:49;8.30;;;3.05;;
5674;SDS011;2860;54.284;10.158;2023-05-17T04:07:16;4.43;;;1.70;;
5674;SDS011;2860;54.284;10.158;2023-05-17T04:09:41;15.02;;;3.80;;
5674;SDS011;2860;54.284;10.158;2023-05-17T04:12:07;6.93;;;2.38;;
5674;SDS011;2860;54.284;10.158;2023-05-17T04:14:34;18.92;;;3.25;;
5674;SDS011;2860;54.284;10.158;2023-05-17T04:17:01;14.98;;;2.00;;
5674;SDS011;2860;54.284;10.158;2023-05-17T04:19:26;16.38;;;3.22;;
5674;SDS011;2860;54.284;10.158;2023-05-17T04:21:52;10.80;;;3.15;;
5674;SDS011;2860;54.284;10.158;2023-05-17T04:24:18;11.50;;;2.10;;
5674;SDS011;2860;54.284;10.158;2023-05-17T04:26:44;12.82;;;3.20;;
5674;SDS011;2860;54.284;10.158;2023-05-17T04:29:09;10.60;;;2.42;;
5674;SDS011;2860;54.284;10.158;2023-05-17T04:31:35;9.10;;;2.58;;
5674;SDS011;2860;54.284;10.158;2023-05-17T04:34:01;13.65;;;2.30;;
5674;SDS011;2860;54.284;10.158;2023-05-17T04:36:26;14.45;;;1.75;;
5674;SDS011;2860;54.284;10.158;2023-05-17T04:38:52;14.90;;;2.75;;
5674;SDS011;2860;54.284;10.158;2023-05-17T04:41:17;11.27;;;2.25;;
5674;SDS011;2860;54.284;10.158;2023-05-17T04:43:43;7.38;;;2.60;;
5674;SDS011;2860;54.284;10.158;2023-05-17T04:46:08;13.00;;;2.45;;
5674;SDS011;2860;54.284;10.158;2023-05-17T04:48:34;7.95;;;2.40;;
5674;SDS011;2860;54.284;10.158;2023-05-17T04:51:00;8.40;;;1.98;;
5674;SDS011;2860;54.284;10.158;2023-05-17T04:53:28;3.83;;;2.13;;
5674;SDS011;2860;54.284;10.158;2023-05-17T04:55:54;6.38;;;1.45;;
5674;SDS011;2860;54.284;10.158;2023-05-17T04:58:20;4.40;;;1.58;;
5674;SDS011;2860;54.284;10.158;2023-05-17T05:00:48;7.18;;;1.65;;
5674;SDS011;2860;54.284;10.158;2023-05-17T05:03:14;8.35;;;2.08;;
5674;SDS011;2860;54.284;10.158;2023-05-17T05:05:39;10.68;;;1.73;;
5674;SDS011;2860;54.284;10.158;2023-05-17T05:08:05;12.43;;;2.42;;
5674;SDS011;2860;54.284;10.158;2023-05-17T05:10:32;13.18;;;2.50;;
5674;SDS011;2860;54.284;10.158;2023-05-17T05:12:58;7.22;;;2.00;;
5674;SDS011;2860;54.284;10.158;2023-05-17T05:15:23;5.38;;;2.22;;
5674;SDS011;2860;54.284;10.158;2023-05-17T05:17:49;16.55;;;2.65;;
5674;SDS011;2860;54.284;10.158;2023-05-17T05:20:15;9.90;;;1.90;;
5674;SDS011;2860;54.284;10.158;2023-05-17T05:22:40;9.38;;;2.28;;
5674;SDS011;2860;54.284;10.158;2023-05-17T05:25:06;4.47;;;2.00;;
5674;SDS011;2860;54.284;10.158;2023-05-17T05:27:32;7.80;;;2.22;;
5674;SDS011;2860;54.284;10.158;2023-05-17T05:29:59;10.50;;;1.65;;
5674;SDS011;2860;54.284;10.158;2023-05-17T05:32:25;5.05;;;1.50;;
5674;SDS011;2860;54.284;10.158;2023-05-17T05:34:50;10.68;;;1.83;;
5674;SDS011;2860;54.284;10.158;2023-05-17T05:37:16;15.18;;;3.17;;
5674;SDS011;2860;54.284;10.158;2023-05-17T05:39:43;12.20;;;1.98;;
5674;SDS011;2860;54.284;10.158;2023-05-17T05:42:09;8.75;;;2.17;;
5674;SDS011;2860;54.284;10.158;2023-05-17T05:44:34;13.77;;;2.72;;
5674;SDS011;2860;54.284;10.158;2023-05-17T05:47:00;10.45;;;2.42;;
5674;SDS011;2860;54.284;10.158;2023-05-17T05:49:25;13.20;;;1.85;;
5674;SDS011;2860;54.284;10.158;2023-05-17T05:51:51;13.57;;;1.92;;
5674;SDS011;2860;54.284;10.158;2023-05-17T05:54:16;10.30;;;1.80;;
5674;SDS011;2860;54.284;10.158;2023-05-17T05:56:42;14.55;;;2.30;;
5674;SDS011;2860;54.284;10.158;2023-05-17T05:59:07;10.07;;;2.40;;
5674;SDS011;2860;54.284;10.158;2023-05-17T06:01:33;10.27;;;2.17;;
5674;SDS011;2860;54.284;10.158;2023-05-17T06:03:58;7.47;;;1.85;;
5674;SDS011;2860;54.284;10.158;2023-05-17T06:06:24;10.52;;;2.30;;
5674;SDS011;2860;54.284;10.158;2023-05-17T06:08:49;11.63;;;1.90;;
5674;SDS011;2860;54.284;10.158;2023-05-17T06:11:15;13.25;;;1.70;;
5674;SDS011;2860;54.284;10.158;2023-05-17T06:13:42;11.57;;;2.28;;
5674;SDS011;2860;54.284;10.158;2023-05-17T06:16:07;18.13;;;2.42;;
5674;SDS011;2860;54.284;10.158;2023-05-17T06:18:33;13.75;;;3.90;;
5674;SDS011;2860;54.284;10.158;2023-05-17T06:20:59;12.73;;;3.22;;
5674;SDS011;2860;54.284;10.158;2023-05-17T06:23:24;9.30;;;2.25;;
5674;SDS011;2860;54.284;10.158;2023-05-17T06:25:50;12.93;;;2.08;;
5674;SDS011;2860;54.284;10.158;2023-05-17T06:28:16;9.00;;;1.98;;
5674;SDS011;2860;54.284;10.158;2023-05-17T06:30:42;15.57;;;2.83;;
5674;SDS011;2860;54.284;10.158;2023-05-17T06:33:07;7.05;;;2.45;;
5674;SDS011;2860;54.284;10.158;2023-05-17T06:35:39;19.17;;;3.20;;
5674;SDS011;2860;54.284;10.158;2023-05-17T06:38:10;11.30;;;2.58;;
5674;SDS011;2860;54.284;10.158;2023-05-17T06:40:36;11.23;;;3.25;;
5674;SDS011;2860;54.284;10.158;2023-05-17T06:43:01;18.58;;;3.05;;
5674;SDS011;2860;54.284;10.158;2023-05-17T06:45:27;9.50;;;2.67;;
5674;SDS011;2860;54.284;10.158;2023-05-17T06:47:53;9.88;;;2.53;;
5674;SDS011;2860;54.284;10.158;2023-05-17T06:50:21;11.30;;;2.63;;
5674;SDS011;2860;54.284;10.158;2023-05-17T06:52:47;7.05;;;2.58;;
5674;SDS011;2860;54.284;10.158;2023-05-17T06:55:12;7.68;;;2.38;;
5674;SDS011;2860;54.284;10.158;2023-05-17T06:57:38;9.98;;;2.40;;
5674;SDS011;2860;54.284;10.158;2023-05-17T07:00:03;14.40;;;3.17;;
5674;SDS011;2860;54.284;10.158;2023-05-17T07:02:34;8.70;;;2.13;;
5674;SDS011;2860;54.284;10.158;2023-05-17T07:05:01;11.88;;;2.65;;
5674;SDS011;2860;54.284;10.158;2023-05-17T07:07:27;14.32;;;2.70;;
5674;SDS011;2860;54.284;10.158;2023-05-17T07:09:52;10.18;;;2.35;;
5674;SDS011;2860;54.284;10.158;2023-05-17T07:12:18;13.20;;;2.22;;
5674;SDS011;2860;54.284;10.158;2023-05-17T07:14:43;6.97;;;2.67;;
5674;SDS011;2860;54.284;10.158;2023-05-17T07:17:09;8.98;;;1.50;;
5674;SDS011;2860;54.284;10.158;2023-05-17T07:19:35;5.20;;;1.85;;
5674;SDS011;2860;54.284;10.158;2023-05-17T07:22:01;8.25;;;1.52;;
5674;SDS011;2860;54.284;10.158;2023-05-17T07:24:26;10.63;;;2.58;;
5674;SDS011;2860;54.284;10.158;2023-05-17T07:26:52;7.53;;;2.20;;
5674;SDS011;2860;54.284;10.158;2023-05-17T07:29:17;9.07;;;2.15;;
5674;SDS011;2860;54.284;10.158;2023-05-17T07:31:43;8.18;;;1.15;;
5674;SDS011;2860;54.284;10.158;2023-05-17T07:34:08;7.97;;;1.77;;
5674;SDS011;2860;54.284;10.158;2023-05-17T07:36:34;2.72;;;1.40;;
5674;SDS011;2860;54.284;10.158;2023-05-17T07:38:59;6.15;;;1.20;;
5674;SDS011;2860;54.284;10.158;2023-05-17T07:41:25;5.28;;;1.58;;
5674;SDS011;2860;54.284;10.158;2023-05-17T07:43:51;5.10;;;1.55;;
5674;SDS011;2860;54.284;10.158;2023-05-17T07:46:16;8.32;;;2.17;;
5674;SDS011;2860;54.284;10.158;2023-05-17T07:48:42;11.77;;;1.90;;
5674;SDS011;2860;54.284;10.158;2023-05-17T07:51:08;6.28;;;1.77;;
5674;SDS011;2860;54.284;10.158;2023-05-17T07:53:33;11.40;;;3.03;;
5674;SDS011;2860;54.284;10.158;2023-05-17T07:55:59;12.35;;;1.95;;
5674;SDS011;2860;54.284;10.158;2023-05-17T07:58:24;7.32;;;1.85;;
5674;SDS011;2860;54.284;10.158;2023-05-17T08:00:50;3.55;;;1.77;;
5674;SDS011;2860;54.284;10.158;2023-05-17T08:03:15;7.50;;;1.65;;
5674;SDS011;2860;54.284;10.158;2023-05-17T08:05:41;13.10;;;1.63;;
5674;SDS011;2860;54.284;10.158;2023-05-17T08:08:06;6.45;;;1.73;;
5674;SDS011;2860;54.284;10.158;2023-05-17T08:10:32;4.95;;;1.27;;
5674;SDS011;2860;54.284;10.158;2023-05-17T08:13:00;5.53;;;1.58;;
5674;SDS011;2860;54.284;10.158;2023-05-17T08:15:25;9.52;;;2.03;;
5674;SDS011;2860;54.284;10.158;2023-05-17T08:17:51;9.20;;;1.55;;
5674;SDS011;2860;54.284;10.158;2023-05-17T08:20:16;7.30;;;1.33;;
5674;SDS011;2860;54.284;10.158;2023-05-17T08:22:42;5.25;;;1.33;;
5674;SDS011;2860;54.284;10.158;2023-05-17T08:25:08;7.07;;;2.58;;
5674;SDS011;2860;54.284;10.158;2023-05-17T08:27:33;7.53;;;1.55;;
5674;SDS011;2860;54.284;10.158;2023-05-17T08:29:59;5.85;;;2.33;;
5674;SDS011;2860;54.284;10.158;2023-05-17T08:32:24;5.78;;;1.02;;
5674;SDS011;2860;54.284;10.158;2023-05-17T08:34:50;7.00;;;1.50;;
5674;SDS011;2860;54.284;10.158;2023-05-17T08:37:19;6.32;;;1.25;;
5674;SDS011;2860;54.284;10.158;2023-05-17T08:39:44;6.22;;;1.88;;
5674;SDS011;2860;54.284;10.158;2023-05-17T08:42:10;6.40;;;2.25;;
5674;SDS011;2860;54.284;10.158;2023-05-17T08:44:36;7.78;;;2.17;;
5674;SDS011;2860;54.284;10.158;2023-05-17T08:47:02;8.25;;;1.73;;
5674;SDS011;2860;54.284;10.158;2023-05-17T08:49:30;5.35;;;1.52;;
5674;SDS011;2860;54.284;10.158;2023-05-17T08:51:58;4.82;;;1.70;;
5674;SDS011;2860;54.284;10.158;2023-05-17T08:54:25;5.35;;;1.30;;
5674;SDS011;2860;54.284;10.158;2023-05-17T08:56:56;6.63;;;1.20;;
5674;SDS011;2860;54.284;10.158;2023-05-17T08:59:24;5.90;;;2.20;;
5674;SDS011;2860;54.284;10.158;2023-05-17T09:01:51;6.57;;;1.90;;
5674;SDS011;2860;54.284;10.158;2023-05-17T09:04:18;8.23;;;1.40;;
5674;SDS011;2860;54.284;10.158;2023-05-17T09:06:44;6.57;;;1.50;;
5674;SDS011;2860;54.284;10.158;2023-05-17T09:09:10;6.63;;;1.60;;
5674;SDS011;2860;54.284;10.158;2023-05-17T09:11:36;3.15;;;1.40;;
5674;SDS011;2860;54.284;10.158;2023-05-17T09:14:04;10.20;;;1.50;;
5674;SDS011;2860;54.284;10.158;2023-05-17T09:16:31;6.07;;;1.35;;
5674;SDS011;2860;54.284;10.158;2023-05-17T09:19:01;9.07;;;1.27;;
5674;SDS011;2860;54.284;10.158;2023-05-17T09:21:29;7.05;;;1.23;;
5674;SDS011;2860;54.284;10.158;2023-05-17T09:23:55;6.85;;;1.35;;
5674;SDS011;2860;54.284;10.158;2023-05-17T09:26:23;7.50;;;2.17;;
5674;SDS011;2860;54.284;10.158;2023-05-17T09:28:49;2.28;;;1.00;;
5674;SDS011;2860;54.284;10.158;2023-05-17T09:31:16;5.63;;;1.67;;
5674;SDS011;2860;54.284;10.158;2023-05-17T09:33:42;7.72;;;1.13;;
5674;SDS011;2860;54.284;10.158;2023-05-17T09:36:15;4.38;;;0.90;;
5674;SDS011;2860;54.284;10.158;2023-05-17T09:38:42;7.50;;;1.88;;
5674;SDS011;2860;54.284;10.158;2023-05-17T09:41:08;7.93;;;1.08;;
5674;SDS011;2860;54.284;10.158;2023-05-17T09:43:33;5.35;;;1.10;;
5674;SDS011;2860;54.284;10.158;2023-05-17T09:45:59;5.15;;;1.23;;
5674;SDS011;2860;54.284;10.158;2023-05-17T09:48:25;6.68;;;1.30;;
5674;SDS011;2860;54.284;10.158;2023-05-17T09:50:52;3.25;;;1.40;;
5674;SDS011;2860;54.284;10.158;2023-05-17T09:53:30;6.53;;;1.27;;
5674;SDS011;2860;54.284;10.158;2023-05-17T09:55:59;2.75;;;1.15;;
5674;SDS011;2860;54.284;10.158;2023-05-17T09:58:26;4.57;;;1.30;;
5674;SDS011;2860;54.284;10.158;2023-05-17T10:01:00;7.85;;;1.60;;
5674;SDS011;2860;54.284;10.158;2023-05-17T10:03:34;8.45;;;1.17;;
5674;SDS011;2860;54.284;10.158;2023-05-17T10:06:02;2.47;;;1.38;;
5674;SDS011;2860;54.284;10.158;2023-05-17T10:08:33;5.25;;;1.25;;
5674;SDS011;2860;54.284;10.158;2023-05-17T10:11:02;7.43;;;1.13;;
5674;SDS011;2860;54.284;10.158;2023-05-17T10:13:45;6.30;;;1.38;;
5674;SDS011;2860;54.284;10.158;2023-05-17T10:16:13;1.35;;;0.52;;
5674;SDS011;2860;54.284;10.158;2023-05-17T10:18:39;3.25;;;1.17;;
5674;SDS011;2860;54.284;10.158;2023-05-17T10:21:08;7.57;;;1.70;;
5674;SDS011;2860;54.284;10.158;2023-05-17T10:23:35;4.35;;;1.67;;
5674;SDS011;2860;54.284;10.158;2023-05-17T10:26:02;24.40;;;2.90;;
5674;SDS011;2860;54.284;10.158;2023-05-17T10:28:29;2.03;;;1.08;;
5674;SDS011;2860;54.284;10.158;2023-05-17T10:30:55;9.18;;;1.67;;
5674;SDS011;2860;54.284;10.158;2023-05-17T10:33:23;8.00;;;0.98;;
5674;SDS011;2860;54.284;10.158;2023-05-17T10:35:51;12.05;;;1.10;;
5674;SDS011;2860;54.284;10.158;2023-05-17T10:38:18;6.20;;;1.40;;
5674;SDS011;2860;54.284;10.158;2023-05-17T10:40:44;4.18;;;1.15;;
5674;SDS011;2860;54.284;10.158;2023-05-17T10:43:11;5.07;;;1.33;;
5674;SDS011;2860;54.284;10.158;2023-05-17T10:45:37;4.20;;;0.95;;
5674;SDS011;2860;54.284;10.158;2023-05-17T10:48:05;5.22;;;0.80;;
5674;SDS011;2860;54.284;10.158;2023-05-17T10:50:32;1.23;;;1.13;;
5674;SDS011;2860;54.284;10.158;2023-05-17T10:53:01;4.30;;;1.08;;
5674;SDS011;2860;54.284;10.158;2023-05-17T10:55:41;3.70;;;0.70;;
5674;SDS011;2860;54.284;10.158;2023-05-17T10:58:12;3.88;;;0.90;;
5674;SDS011;2860;54.284;10.158;2023-05-17T11:00:43;5.45;;;0.90;;
5674;SDS011;2860;54.284;10.158;2023-05-17T11:03:29;2.00;;;0.82;;
5674;SDS011;2860;54.284;10.158;2023-05-17T11:08:35;1.20;;;0.80;;
5674;SDS011;2860;54.284;10.158;2023-05-17T11:11:08;0.57;;;0.57;;
5674;SDS011;2860;54.284;10.158;2023-05-17T11:13:50;8.38;;;0.88;;
5674;SDS011;2860;54.284;10.158;2023-05-17T11:16:22;3.85;;;1.00;;
5674;SDS011;2860;54.284;10.158;2023-05-17T11:18:52;2.08;;;0.85;;
5674;SDS011;2860;54.284;10.158;2023-05-17T11:21:21;1.67;;;0.50;;
5674;SDS011;2860;54.284;10.158;2023-05-17T11:23:47;1.30;;;0.47;;
5674;SDS011;2860;54.284;10.158;2023-05-17T11:26:22;1.98;;;0.65;;
5674;SDS011;2860;54.284;10.158;2023-05-17T11:28:59;6.18;;;1.00;;
5674;SDS011;2860;54.284;10.158;2023-05-17T11:31:33;1.40;;;0.77;;
5674;SDS011;2860;54.284;10.158;2023-05-17T11:34:01;6.18;;;0.80;;
5674;SDS011;2860;54.284;10.158;2023-05-17T11:36:28;5.15;;;1.10;;
5674;SDS011;2860;54.284;10.158;2023-05-17T11:39:10;4.40;;;1.17;;
5674;SDS011;2860;54.284;10.158;2023-05-17T11:41:37;4.78;;;1.15;;
5674;SDS011;2860;54.284;10.158;2023-05-17T11:44:07;2.55;;;0.70;;
5674;SDS011;2860;54.284;10.158;2023-05-17T11:46:35;4.00;;;1.13;;
5674;SDS011;2860;54.284;10.158;2023-05-17T11:49:05;7.05;;;1.08;;
5674;SDS011;2860;54.284;10.158;2023-05-17T11:51:31;4.38;;;0.90;;
5674;SDS011;2860;54.284;10.158;2023-05-17T11:53:58;2.30;;;0.70;;
5674;SDS011;2860;54.284;10.158;2023-05-17T11:56:27;3.47;;;1.00;;
5674;SDS011;2860;54.284;10.158;2023-05-17T11:58:57;3.60;;;0.65;;
5674;SDS011;2860;54.284;10.158;2023-05-17T12:01:23;1.67;;;0.80;;
5674;SDS011;2860;54.284;10.158;2023-05-17T12:03:54;2.47;;;1.00;;
5674;SDS011;2860;54.284;10.158;2023-05-17T12:06:21;1.95;;;1.42;;
5674;SDS011;2860;54.284;10.158;2023-05-17T12:08:48;2.42;;;0.88;;
5674;SDS011;2860;54.284;10.158;2023-05-17T12:11:15;4.70;;;0.98;;
5674;SDS011;2860;54.284;10.158;2023-05-17T12:13:41;1.90;;;0.80;;
5674;SDS011;2860;54.284;10.158;2023-05-17T12:16:12;6.07;;;1.00;;
5674;SDS011;2860;54.284;10.158;2023-05-17T12:18:39;5.32;;;0.80;;
5674;SDS011;2860;54.284;10.158;2023-05-17T12:21:07;3.33;;;1.35;;
5674;SDS011;2860;54.284;10.158;2023-05-17T12:23:34;5.90;;;1.30;;
5674;SDS011;2860;54.284;10.158;2023-05-17T12:28:27;4.00;;;0.90;;
5674;SDS011;2860;54.284;10.158;2023-05-17T12:30:53;4.88;;;1.25;;
5674;SDS011;2860;54.284;10.158;2023-05-17T12:33:27;4.05;;;0.88;;
5674;SDS011;2860;54.284;10.158;2023-05-17T12:35:59;8.27;;;3.28;;
5674;SDS011;2860;54.284;10.158;2023-05-17T12:38:27;5.13;;;1.20;;
5674;SDS011;2860;54.284;10.158;2023-05-17T12:40:57;5.05;;;0.68;;
5674;SDS011;2860;54.284;10.158;2023-05-17T12:43:26;1.75;;;0.75;;
5674;SDS011;2860;54.284;10.158;2023-05-17T12:45:54;1.92;;;0.93;;
5674;SDS011;2860;54.284;10.158;2023-05-17T12:48:26;2.40;;;0.82;;
5674;SDS011;2860;54.284;10.158;2023-05-17T12:50:51;1.98;;;0.77;;
5674;SDS011;2860;54.284;10.158;2023-05-17T12:53:19;9.63;;;0.90;;
5674;SDS011;2860;54.284;10.158;2023-05-17T12:55:46;3.10;;;0.93;;
5674;SDS011;2860;54.284;10.158;2023-05-17T12:58:12;4.47;;;0.82;;
5674;SDS011;2860;54.284;10.158;2023-05-17T13:00:37;3.97;;;0.77;;
5674;SDS011;2860;54.284;10.158;2023-05-17T13:03:08;1.25;;;0.80;;
5674;SDS011;2860;54.284;10.158;2023-05-17T13:05:34;2.65;;;0.75;;
5674;SDS011;2860;54.284;10.158;2023-05-17T13:08:18;3.13;;;0.60;;
5674;SDS011;2860;54.284;10.158;2023-05-17T13:10:45;2.78;;;0.70;;
5674;SDS011;2860;54.284;10.158;2023-05-17T13:13:10;0.93;;;0.65;;
5674;SDS011;2860;54.284;10.158;2023-05-17T13:15:43;3.67;;;0.80;;
5674;SDS011;2860;54.284;10.158;2023-05-17T13:18:11;2.85;;;1.63;;
5674;SDS011;2860;54.284;10.158;2023-05-17T13:20:43;3.25;;;0.75;;
5674;SDS011;2860;54.284;10.158;2023-05-17T13:23:08;5.00;;;0.77;;
5674;SDS011;2860;54.284;10.158;2023-05-17T13:25:34;1.50;;;0.82;;
5674;SDS011;2860;54.284;10.158;2023-05-17T13:28:03;0.93;;;0.80;;
5674;SDS011;2860;54.284;10.158;2023-05-17T13:30:29;11.27;;;1.33;;
5674;SDS011;2860;54.284;10.158;2023-05-17T13:32:54;4.43;;;1.02;;
5674;SDS011;2860;54.284;10.158;2023-05-17T13:35:20;4.95;;;1.08;;
5674;SDS011;2860;54.284;10.158;2023-05-17T13:37:45;1.75;;;0.93;;
5674;SDS011;2860;54.284;10.158;2023-05-17T13:40:11;5.55;;;1.55;;
5674;SDS011;2860;54.284;10.158;2023-05-17T13:42:37;3.65;;;0.80;;
5674;SDS011;2860;54.284;10.158;2023-05-17T13:45:03;4.50;;;0.80;;
5674;SDS011;2860;54.284;10.158;2023-05-17T13:47:28;6.03;;;0.82;;
5674;SDS011;2860;54.284;10.158;2023-05-17T13:49:55;3.35;;;0.90;;
5674;SDS011;2860;54.284;10.158;2023-05-17T13:52:23;1.38;;;0.70;;
5674;SDS011;2860;54.284;10.158;2023-05-17T13:54:49;2.67;;;0.70;;
5674;SDS011;2860;54.284;10.158;2023-05-17T13:57:14;7.88;;;1.23;;
5674;SDS011;2860;54.284;10.158;2023-05-17T13:59:40;3.03;;;0.93;;
5674;SDS011;2860;54.284;10.158;2023-05-17T14:02:06;4.28;;;0.85;;
5674;SDS011;2860;54.284;10.158;2023-05-17T14:04:33;2.40;;;0.93;;
5674;SDS011;2860;54.284;10.158;2023-05-17T14:06:59;1.23;;;0.68;;
5674;SDS011;2860;54.284;10.158;2023-05-17T14:09:25;2.22;;;0.82;;
5674;SDS011;2860;54.284;10.158;2023-05-17T14:11:54;4.03;;;0.70;;
5674;SDS011;2860;54.284;10.158;2023-05-17T14:14:20;3.25;;;2.10;;
5674;SDS011;2860;54.284;10.158;2023-05-17T14:16:49;1.77;;;0.80;;
5674;SDS011;2860;54.284;10.158;2023-05-17T14:19:15;2.38;;;0.63;;
5674;SDS011;2860;54.284;10.158;2023-05-17T14:21:40;3.55;;;1.02;;
5674;SDS011;2860;54.284;10.158;2023-05-17T14:24:06;2.58;;;1.27;;
5674;SDS011;2860;54.284;10.158;2023-05-17T14:26:32;1.90;;;0.90;;
5674;SDS011;2860;54.284;10.158;2023-05-17T14:28:57;2.78;;;1.00;;
5674;SDS011;2860;54.284;10.158;2023-05-17T14:31:23;4.68;;;1.00;;
5674;SDS011;2860;54.284;10.158;2023-05-17T14:33:48;4.47;;;1.00;;
5674;SDS011;2860;54.284;10.158;2023-05-17T14:36:14;5.43;;;0.82;;
5674;SDS011;2860;54.284;10.158;2023-05-17T14:38:39;3.47;;;1.30;;
5674;SDS011;2860;54.284;10.158;2023-05-17T14:41:05;3.70;;;1.25;;
5674;SDS011;2860;54.284;10.158;2023-05-17T14:43:31;7.85;;;1.23;;
5674;SDS011;2860;54.284;10.158;2023-05-17T14:45:56;2.70;;;0.98;;
5674;SDS011;2860;54.284;10.158;2023-05-17T14:48:22;3.38;;;1.35;;
5674;SDS011;2860;54.284;10.158;2023-05-17T14:50:47;7.10;;;1.13;;
5674;SDS011;2860;54.284;10.158;2023-05-17T14:53:13;4.18;;;0.93;;
5674;SDS011;2860;54.284;10.158;2023-05-17T14:55:39;4.15;;;1.17;;
5674;SDS011;2860;54.284;10.158;2023-05-17T14:58:05;2.08;;;0.73;;
5674;SDS011;2860;54.284;10.158;2023-05-17T15:00:30;2.28;;;1.20;;
5674;SDS011;2860;54.284;10.158;2023-05-17T15:02:56;3.30;;;0.90;;
5674;SDS011;2860;54.284;10.158;2023-05-17T15:05:22;2.58;;;1.63;;
5674;SDS011;2860;54.284;10.158;2023-05-17T15:07:47;6.43;;;1.13;;